Time;durP1;ratioP1;P1;durP2;ratioP2;P2;SDS_P1;SDS_P2;PMS_P1;PMS_P2;Temp;Humidity;BMP_temperature;BMP_pressure;BME280_temperature;BME280_humidity;BME280_pressure;Samples;Min_cycle;Max_cycle;Signal;HPM_P1;HPM_P2
2021/12/15 00:01:25;;;;;;;34.73;17.70;;;;;;;;;;5073590;28;20426;-72
2021/12/15 00:03:51;;;;;;;34.47;17.03;;;;;;;;;;5072067;28;20408;-72
2021/12/15 00:06:19;;;;;;;36.40;18.03;;;;;;;;;;5073628;28;20887;-71
2021/12/15 00:08:47;;;;;;;32.03;15.80;;;;;;;;;;5072174;28;20420;-71
2021/12/15 00:11:13;;;;;;;27.77;15.53;;;;;;;;;;5073422;28;20854;-73
2021/12/15 00:13:40;;;;;;;31.37;14.97;;;;;;;;;;5072207;28;20398;-74
2021/12/15 00:16:07;;;;;;;29.10;15.67;;;;;;;;;;5073368;28;20905;-72
2021/12/15 00:18:33;;;;;;;35.63;17.20;;;;;;;;;;5073268;28;20488;-73
2021/12/15 00:20:59;;;;;;;35.97;17.23;;;;;;;;;;5073303;28;20432;-72
2021/12/15 00:23:25;;;;;;;35.60;17.10;;;;;;;;;;5073338;28;20904;-73
2021/12/15 00:25:51;;;;;;;31.80;15.50;;;;;;;;;;5073233;28;20409;-69
2021/12/15 00:28:17;;;;;;;31.40;15.00;;;;;;;;;;5072006;28;20462;-70
2021/12/15 00:30:44;;;;;;;29.03;15.37;;;;;;;;;;5073268;28;20759;-69
2021/12/15 00:33:10;;;;;;;30.70;15.23;;;;;;;;;;5073196;28;20417;-73
2021/12/15 00:35:37;;;;;;;28.80;14.43;;;;;;;;;;5073183;28;20905;-70
2021/12/15 00:38:06;;;;;;;31.13;14.90;;;;;;;;;;5073173;28;20902;-71
2021/12/15 00:40:32;;;;;;;31.57;15.47;;;;;;;;;;5072857;28;20509;-69
2021/12/15 00:42:58;;;;;;;30.23;15.30;;;;;;;;;;5073064;28;20419;-69
2021/12/15 00:45:25;;;;;;;32.83;15.73;;;;;;;;;;5071804;28;20502;-70
2021/12/15 00:47:51;;;;;;;38.60;16.50;;;;;;;;;;5071655;28;20980;-68
2021/12/15 00:50:18;;;;;;;38.03;16.10;;;;;;;;;;5073051;28;20413;-73
2021/12/15 00:52:46;;;;;;;32.90;16.07;;;;;;;;;;5073009;28;20408;-71
2021/12/15 00:55:13;;;;;;;30.60;16.80;;;;;;;;;;5072893;28;20949;-74
2021/12/15 00:57:39;;;;;;;26.93;15.33;;;;;;;;;;5072764;28;20459;-72
2021/12/15 01:00:07;;;;;;;29.67;15.93;;;;;;;;;;5071600;28;20865;-71
2021/12/15 01:02:34;;;;;;;27.50;13.80;;;;;;;;;;5072915;28;20395;-70
2021/12/15 01:05:00;;;;;;;26.03;13.63;;;;;;;;;;5072896;28;20449;-72
2021/12/15 01:07:26;;;;;;;26.10;13.17;;;;;;;;;;5071493;28;20405;-69
2021/12/15 01:09:55;;;;;;;24.93;13.47;;;;;;;;;;5072779;28;20467;-69
2021/12/15 01:14:28;;;;;;;27.13;13.40;;;;;;;;;;5072846;28;20454;-71
2021/12/15 01:20:50;;;;;;;32.13;14.60;;;;;;;;;;5076681;28;20463;-69
2021/12/15 01:23:19;;;;;;;29.17;13.70;;;;;;;;;;5076677;28;20396;-69
2021/12/15 01:25:51;;;;;;;31.20;15.17;;;;;;;;;;5076594;28;20542;-71
2021/12/15 01:28:18;;;;;;;26.17;13.90;;;;;;;;;;5076373;28;20405;-72
2021/12/15 01:30:45;;;;;;;27.93;14.10;;;;;;;;;;5075210;28;20410;-71
2021/12/15 01:33:11;;;;;;;24.57;12.83;;;;;;;;;;5076452;28;20427;-73
2021/12/15 01:35:39;;;;;;;25.27;13.70;;;;;;;;;;5076436;28;20400;-71
2021/12/15 01:38:05;;;;;;;23.80;14.20;;;;;;;;;;5076394;28;20801;-72
2021/12/15 01:40:35;;;;;;;25.90;14.87;;;;;;;;;;5076056;28;20468;-70
2021/12/15 01:43:12;;;;;;;26.53;15.20;;;;;;;;;;5076280;28;20887;-70
2021/12/15 01:48:23;;;;;;;24.00;13.50;;;;;;;;;;5076309;28;20462;-73
2021/12/15 01:50:50;;;;;;;22.87;14.60;;;;;;;;;;5076093;28;20413;-72
2021/12/15 01:53:17;;;;;;;25.40;12.73;;;;;;;;;;5075954;28;20411;-72
2021/12/15 01:55:43;;;;;;;29.80;15.13;;;;;;;;;;5075681;28;20797;-73
2021/12/15 01:58:09;;;;;;;29.83;16.27;;;;;;;;;;5075964;28;20811;-71
2021/12/15 02:00:41;;;;;;;29.97;16.23;;;;;;;;;;5075914;28;20464;-73
2021/12/15 02:03:07;;;;;;;29.10;14.57;;;;;;;;;;5075931;28;20454;-73
2021/12/15 02:05:34;;;;;;;28.73;15.00;;;;;;;;;;5075808;28;20942;-73
2021/12/15 02:08:01;;;;;;;35.83;15.97;;;;;;;;;;5075664;28;20399;-73
2021/12/15 02:10:30;;;;;;;31.70;15.53;;;;;;;;;;5075544;28;20439;-73
2021/12/15 02:12:57;;;;;;;27.57;14.77;;;;;;;;;;5075611;28;20935;-69
2021/12/15 02:15:26;;;;;;;32.77;14.50;;;;;;;;;;5074403;28;20812;-71
2021/12/15 02:17:52;;;;;;;26.40;13.97;;;;;;;;;;5075294;28;20418;-73
2021/12/15 02:20:20;;;;;;;25.50;13.67;;;;;;;;;;5075529;28;20464;-73
2021/12/15 02:22:46;;;;;;;25.47;12.80;;;;;;;;;;5075611;28;20470;-73
2021/12/15 02:25:15;;;;;;;25.53;13.67;;;;;;;;;;5075593;28;20881;-67
2021/12/15 02:27:41;;;;;;;24.20;12.90;;;;;;;;;;5075365;28;20408;-69
2021/12/15 02:33:41;;;;;;;26.73;14.27;;;;;;;;;;5038182;28;20411;-68
2021/12/15 02:38:46;;;;;;;23.70;12.73;;;;;;;;;;5075252;28;20807;-68
2021/12/15 02:41:20;;;;;;;27.07;14.90;;;;;;;;;;5075080;28;20475;-69
2021/12/15 02:43:47;;;;;;;21.77;12.57;;;;;;;;;;5075232;28;20405;-68
2021/12/15 02:46:13;;;;;;;24.27;13.50;;;;;;;;;;5075009;28;20556;-67
2021/12/15 02:48:39;;;;;;;22.07;13.33;;;;;;;;;;5074935;28;20409;-68
2021/12/15 02:51:05;;;;;;;23.00;12.90;;;;;;;;;;5075069;28;20526;-67
2021/12/15 02:53:31;;;;;;;23.60;13.67;;;;;;;;;;5074894;28;20455;-67
2021/12/15 02:55:57;;;;;;;23.93;13.33;;;;;;;;;;5074654;28;20869;-68
2021/12/15 02:58:23;;;;;;;22.53;12.53;;;;;;;;;;5074827;28;20401;-68
2021/12/15 03:01:00;;;;;;;24.27;13.10;;;;;;;;;;5074718;28;20476;-68
2021/12/15 03:06:09;;;;;;;28.40;14.50;;;;;;;;;;5074676;28;20412;-68
2021/12/15 03:16:41;;;;;;;29.87;14.30;;;;;;;;;;5074573;28;20396;-71
2021/12/15 03:19:07;;;;;;;20.97;10.67;;;;;;;;;;5074246;28;20956;-70
2021/12/15 03:21:33;;;;;;;22.60;12.17;;;;;;;;;;5074455;28;20405;-70
2021/12/15 03:24:07;;;;;;;20.33;10.87;;;;;;;;;;5074375;28;20393;-68
2021/12/15 03:26:38;;;;;;;22.20;12.20;;;;;;;;;;5074371;28;20408;-69
2021/12/15 03:34:45;;;;;;;25.00;12.30;;;;;;;;;;5074256;28;20388;-72
2021/12/15 03:37:23;;;;;;;19.70;12.20;;;;;;;;;;5074230;28;20446;-70
2021/12/15 03:39:51;;;;;;;19.70;12.27;;;;;;;;;;5073478;28;20828;-73
2021/12/15 03:42:19;;;;;;;13.77;8.70;;;;;;;;;;5073985;28;20490;-73
2021/12/15 03:44:46;;;;;;;10.27;7.60;;;;;;;;;;5073991;28;20405;-70
2021/12/15 03:47:15;;;;;;;16.57;9.60;;;;;;;;;;5072503;28;20445;-73
2021/12/15 03:49:42;;;;;;;16.17;9.97;;;;;;;;;;5073945;28;20444;-73
2021/12/15 03:52:09;;;;;;;18.20;10.40;;;;;;;;;;5073757;28;20405;-71
2021/12/15 03:54:35;;;;;;;13.40;9.00;;;;;;;;;;5073772;28;20416;-72
2021/12/15 03:57:01;;;;;;;13.53;8.87;;;;;;;;;;5073482;28;21016;-72
2021/12/15 03:59:28;;;;;;;13.00;8.53;;;;;;;;;;5073478;28;20462;-72
2021/12/15 04:01:55;;;;;;;12.67;8.20;;;;;;;;;;5073688;28;20549;-71
2021/12/15 04:04:24;;;;;;;12.20;7.53;;;;;;;;;;5073852;28;20397;-70
2021/12/15 04:06:51;;;;;;;14.40;8.77;;;;;;;;;;5073226;28;20422;-71
2021/12/15 04:09:18;;;;;;;9.20;6.60;;;;;;;;;;5073545;28;20393;-73
2021/12/15 04:11:44;;;;;;;8.10;4.90;;;;;;;;;;5073393;28;20420;-72
2021/12/15 04:14:12;;;;;;;4.20;3.40;;;;;;;;;;5073601;28;20827;-71
2021/12/15 04:16:45;;;;;;;4.37;3.60;;;;;;;;;;5072117;28;20405;-68
2021/12/15 04:19:14;;;;;;;4.83;3.83;;;;;;;;;;5073421;28;20504;-69
2021/12/15 04:21:40;;;;;;;3.73;3.23;;;;;;;;;;5073488;28;20459;-70
2021/12/15 04:24:07;;;;;;;3.57;3.27;;;;;;;;;;5073354;28;20752;-71
2021/12/15 04:26:33;;;;;;;6.13;4.20;;;;;;;;;;5073230;28;20411;-70
2021/12/15 04:28:59;;;;;;;5.77;4.27;;;;;;;;;;5073216;28;20423;-68
2021/12/15 04:31:26;;;;;;;5.57;4.77;;;;;;;;;;5073263;28;20447;-68
2021/12/15 04:34:00;;;;;;;8.50;5.13;;;;;;;;;;5073201;28;20409;-69
2021/12/15 04:36:28;;;;;;;10.90;6.70;;;;;;;;;;5073294;28;20407;-67
2021/12/15 04:38:56;;;;;;;8.00;6.50;;;;;;;;;;5072962;28;20407;-67
2021/12/15 04:41:22;;;;;;;10.73;6.30;;;;;;;;;;5073094;28;20455;-68
2021/12/15 04:43:56;;;;;;;6.43;5.50;;;;;;;;;;5073114;28;20415;-67
2021/12/15 04:46:24;;;;;;;6.10;5.50;;;;;;;;;;5071670;28;20502;-68
2021/12/15 04:48:50;;;;;;;9.10;6.57;;;;;;;;;;5072921;28;20405;-69
2021/12/15 04:51:18;;;;;;;8.23;5.77;;;;;;;;;;5074991;28;20417;-68
2021/12/15 04:53:44;;;;;;;6.43;5.30;;;;;;;;;;5077238;28;20405;-70
2021/12/15 04:56:10;;;;;;;8.13;6.20;;;;;;;;;;5076984;28;21061;-68
2021/12/15 04:58:36;;;;;;;7.47;5.67;;;;;;;;;;5077075;28;20503;-70
2021/12/15 05:01:04;;;;;;;7.20;6.00;;;;;;;;;;5075802;28;20513;-72
2021/12/15 05:03:30;;;;;;;7.10;5.50;;;;;;;;;;5075769;28;20419;-70
2021/12/15 05:05:56;;;;;;;7.97;5.50;;;;;;;;;;5076874;28;20413;-72
2021/12/15 05:08:22;;;;;;;8.17;6.07;;;;;;;;;;5075596;28;20409;-69
2021/12/15 05:10:50;;;;;;;8.77;6.20;;;;;;;;;;5076708;28;20432;-68
2021/12/15 05:13:17;;;;;;;7.50;6.10;;;;;;;;;;5076934;28;20408;-69
2021/12/15 05:15:43;;;;;;;7.47;5.70;;;;;;;;;;5076756;28;20434;-70
2021/12/15 05:18:09;;;;;;;5.70;4.80;;;;;;;;;;5076693;28;20404;-72
2021/12/15 05:20:38;;;;;;;8.83;5.80;;;;;;;;;;5076561;28;20486;-68
2021/12/15 05:23:05;;;;;;;7.50;5.67;;;;;;;;;;5076589;28;20491;-71
2021/12/15 05:25:32;;;;;;;7.40;5.87;;;;;;;;;;5076553;28;20396;-70
2021/12/15 05:27:58;;;;;;;7.20;5.73;;;;;;;;;;5076491;28;20450;-71
2021/12/15 05:30:24;;;;;;;7.80;6.00;;;;;;;;;;5076491;28;20883;-70
2021/12/15 05:32:50;;;;;;;7.27;6.03;;;;;;;;;;5076471;28;20448;-70
2021/12/15 05:35:22;;;;;;;8.43;6.57;;;;;;;;;;5076435;28;20401;-72
2021/12/15 05:37:58;;;;;;;7.50;6.33;;;;;;;;;;5075084;28;20412;-68
2021/12/15 05:40:24;;;;;;;6.27;5.57;;;;;;;;;;5076067;28;20468;-68
2021/12/15 05:42:51;;;;;;;8.43;6.03;;;;;;;;;;5076203;28;20419;-71
2021/12/15 05:45:17;;;;;;;6.33;5.47;;;;;;;;;;5076135;28;20410;-67
2021/12/15 05:47:44;;;;;;;6.53;5.60;;;;;;;;;;5076100;28;20490;-67
2021/12/15 05:50:11;;;;;;;6.50;5.47;;;;;;;;;;5076055;28;20776;-68
2021/12/15 05:52:37;;;;;;;7.03;5.83;;;;;;;;;;5075952;28;20508;-67
2021/12/15 05:55:05;;;;;;;5.50;5.00;;;;;;;;;;5076021;28;20417;-69
2021/12/15 05:57:31;;;;;;;5.73;4.93;;;;;;;;;;5074504;28;20460;-67
2021/12/15 05:59:57;;;;;;;6.43;4.47;;;;;;;;;;5075807;28;20557;-68
2021/12/15 06:02:23;;;;;;;5.50;4.57;;;;;;;;;;5074112;28;20417;-68
2021/12/15 06:04:49;;;;;;;6.67;5.47;;;;;;;;;;5075716;28;20427;-67
2021/12/15 06:07:15;;;;;;;8.10;5.93;;;;;;;;;;5075842;28;20420;-70
2021/12/15 06:09:41;;;;;;;6.00;5.43;;;;;;;;;;5075652;28;20466;-67
2021/12/15 06:12:08;;;;;;;7.60;6.00;;;;;;;;;;5075586;28;20436;-71
2021/12/15 06:14:34;;;;;;;11.43;7.33;;;;;;;;;;5074442;28;20463;-70
2021/12/15 06:17:08;;;;;;;9.57;7.60;;;;;;;;;;5075700;28;20893;-73
2021/12/15 06:19:34;;;;;;;10.50;7.30;;;;;;;;;;5074253;28;20865;-73
2021/12/15 06:22:00;;;;;;;11.23;7.60;;;;;;;;;;5074260;28;20465;-74
2021/12/15 06:24:27;;;;;;;10.67;7.50;;;;;;;;;;5075439;28;20442;-72
2021/12/15 06:26:53;;;;;;;9.07;7.40;;;;;;;;;;5075347;28;20408;-68
2021/12/15 06:29:19;;;;;;;9.70;7.50;;;;;;;;;;5075437;28;20472;-72
2021/12/15 06:31:45;;;;;;;9.80;7.00;;;;;;;;;;5075330;28;20428;-73
2021/12/15 06:34:12;;;;;;;10.60;7.73;;;;;;;;;;5075104;28;20491;-70
2021/12/15 06:36:38;;;;;;;7.77;6.30;;;;;;;;;;5075257;28;20412;-72
2021/12/15 06:39:04;;;;;;;8.40;6.60;;;;;;;;;;5075050;28;20392;-72
2021/12/15 06:41:31;;;;;;;7.97;6.87;;;;;;;;;;5075022;28;20455;-71
2021/12/15 06:43:58;;;;;;;10.10;6.80;;;;;;;;;;5075086;28;20428;-72
2021/12/15 06:59:56;;;;;;;10.77;8.10;;;;;;;;;;5074759;28;21045;-74
2021/12/15 07:02:22;;;;;;;11.43;8.37;;;;;;;;;;5074821;28;20393;-70
2021/12/15 07:04:48;;;;;;;13.43;9.67;;;;;;;;;;5074819;28;20459;-73
2021/12/15 07:07:14;;;;;;;10.53;8.17;;;;;;;;;;5073408;28;20921;-74
2021/12/15 07:09:40;;;;;;;9.30;7.20;;;;;;;;;;5074459;28;20412;-70
2021/12/15 07:12:07;;;;;;;12.80;8.70;;;;;;;;;;5074554;28;20468;-70
2021/12/15 07:14:33;;;;;;;9.17;7.33;;;;;;;;;;5073568;28;20448;-71
2021/12/15 07:16:59;;;;;;;10.77;8.13;;;;;;;;;;5074411;28;20979;-71
2021/12/15 07:24:40;;;;;;;9.87;7.77;;;;;;;;;;5074476;28;20400;-70
2021/12/15 07:27:07;;;;;;;11.80;8.27;;;;;;;;;;5074299;28;20401;-72
2021/12/15 07:29:33;;;;;;;13.07;9.13;;;;;;;;;;5072903;28;20470;-70
2021/12/15 07:31:59;;;;;;;13.47;10.27;;;;;;;;;;5074109;28;20887;-74
2021/12/15 07:34:25;;;;;;;14.20;9.00;;;;;;;;;;5072925;28;20516;-71
2021/12/15 07:36:51;;;;;;;11.83;9.20;;;;;;;;;;5074113;28;20415;-73
2021/12/15 07:39:17;;;;;;;15.37;10.43;;;;;;;;;;5073881;28;20554;-73
2021/12/15 07:41:55;;;;;;;14.90;10.50;;;;;;;;;;5073919;28;20439;-72
2021/12/15 07:44:22;;;;;;;12.17;9.10;;;;;;;;;;5074016;28;20428;-72
2021/12/15 07:46:52;;;;;;;12.37;9.30;;;;;;;;;;5072450;28;20397;-74
2021/12/15 07:49:20;;;;;;;12.63;9.63;;;;;;;;;;5073821;28;20393;-74
2021/12/15 07:51:46;;;;;;;13.67;10.00;;;;;;;;;;5073702;28;20434;-73
2021/12/15 07:54:13;;;;;;;14.97;10.03;;;;;;;;;;5073682;28;20884;-73
2021/12/15 07:56:39;;;;;;;15.00;9.10;;;;;;;;;;5072168;28;20458;-74
2021/12/15 07:59:05;;;;;;;12.07;8.40;;;;;;;;;;5073574;28;20388;-72
2021/12/15 08:01:32;;;;;;;14.03;10.13;;;;;;;;;;5073502;28;20899;-73
2021/12/15 08:04:00;;;;;;;14.30;8.80;;;;;;;;;;5073527;28;21158;-73
2021/12/15 08:06:27;;;;;;;14.67;9.60;;;;;;;;;;5073347;28;20420;-71
2021/12/15 08:08:53;;;;;;;13.17;8.57;;;;;;;;;;5073484;28;20442;-71
2021/12/15 08:11:19;;;;;;;14.77;9.57;;;;;;;;;;5073472;28;20814;-69
2021/12/15 08:13:45;;;;;;;13.73;8.93;;;;;;;;;;5073392;28;20413;-73
2021/12/15 08:16:14;;;;;;;13.37;8.13;;;;;;;;;;5073277;28;20408;-73
2021/12/15 08:18:40;;;;;;;14.57;9.30;;;;;;;;;;5072043;28;20420;-72
2021/12/15 08:21:06;;;;;;;11.60;8.37;;;;;;;;;;5073302;28;20476;-73
2021/12/15 08:23:32;;;;;;;13.30;7.83;;;;;;;;;;5073224;28;20400;-72
2021/12/15 08:25:58;;;;;;;11.90;7.53;;;;;;;;;;5072968;28;20413;-73
2021/12/15 08:28:24;;;;;;;10.60;7.63;;;;;;;;;;5073216;28;20511;-70
2021/12/15 08:30:51;;;;;;;11.40;7.53;;;;;;;;;;5073212;28;20412;-68
2021/12/15 08:33:19;;;;;;;12.17;7.57;;;;;;;;;;5071915;28;20733;-74
2021/12/15 08:36:05;;;;;;;10.10;7.37;;;;;;;;;;5073200;28;20760;-73
2021/12/15 08:38:33;;;;;;;10.63;6.73;;;;;;;;;;5073233;28;20409;-71
2021/12/15 08:40:59;;;;;;;8.30;6.10;;;;;;;;;;5071565;28;20468;-73
2021/12/15 08:43:25;;;;;;;10.47;6.03;;;;;;;;;;5073078;28;20500;-72
2021/12/15 08:45:54;;;;;;;8.00;5.57;;;;;;;;;;5071688;28;20413;-70
2021/12/15 08:48:20;;;;;;;11.50;6.50;;;;;;;;;;5071748;28;20458;-74
2021/12/15 08:50:47;;;;;;;8.47;6.33;;;;;;;;;;5073048;28;20423;-73
2021/12/15 08:53:13;;;;;;;9.10;6.83;;;;;;;;;;5072939;28;20946;-72
2021/12/15 08:55:40;;;;;;;8.40;6.30;;;;;;;;;;5072818;28;20519;-72
2021/12/15 08:58:09;;;;;;;9.20;7.03;;;;;;;;;;5071719;28;20941;-73
2021/12/15 09:00:36;;;;;;;9.93;6.67;;;;;;;;;;5072913;28;20464;-72
2021/12/15 09:03:02;;;;;;;10.80;7.57;;;;;;;;;;5072836;28;20401;-73
2021/12/15 09:05:28;;;;;;;10.70;7.27;;;;;;;;;;5071492;28;20896;-75
2021/12/15 09:07:56;;;;;;;7.43;6.17;;;;;;;;;;5072856;28;20408;-73
2021/12/15 09:10:23;;;;;;;9.60;6.87;;;;;;;;;;5072769;28;20438;-72
2021/12/15 09:12:49;;;;;;;8.70;5.63;;;;;;;;;;5072842;28;20412;-71
2021/12/15 09:15:15;;;;;;;8.63;5.83;;;;;;;;;;5072705;28;20879;-73
2021/12/15 09:17:41;;;;;;;8.57;5.63;;;;;;;;;;5072604;28;20440;-70
2021/12/15 09:20:12;;;;;;;7.17;5.43;;;;;;;;;;5072781;28;20467;-70
2021/12/15 09:22:38;;;;;;;8.17;5.37;;;;;;;;;;5072657;28;20891;-74
2021/12/15 09:25:06;;;;;;;9.00;6.30;;;;;;;;;;5072404;28;20420;-74
2021/12/15 09:27:32;;;;;;;7.33;5.73;;;;;;;;;;5072526;28;20420;-73
2021/12/15 09:29:58;;;;;;;10.33;6.77;;;;;;;;;;5072538;28;20455;-69
2021/12/15 09:32:24;;;;;;;8.97;5.57;;;;;;;;;;5072583;28;20413;-72
2021/12/15 09:34:50;;;;;;;12.40;5.80;;;;;;;;;;5072526;28;20409;-68
2021/12/15 09:37:18;;;;;;;7.30;5.27;;;;;;;;;;5074330;28;20819;-72
2021/12/15 09:39:44;;;;;;;7.93;6.00;;;;;;;;;;5076142;28;20460;-70
2021/12/15 09:42:12;;;;;;;6.00;4.73;;;;;;;;;;5074997;28;20486;-72
2021/12/15 09:44:38;;;;;;;6.73;4.80;;;;;;;;;;5076133;28;20459;-72
2021/12/15 10:03:05;;;;;;;5.20;4.20;;;;;;;;;;5076153;28;20403;-71
2021/12/15 10:11:00;;;;;;;6.30;4.40;;;;;;;;;;5075825;28;20486;-74
2021/12/15 10:19:27;;;;;;;6.83;4.73;;;;;;;;;;5075440;28;20440;-74
2021/12/15 10:21:58;;;;;;;5.10;4.20;;;;;;;;;;5075432;28;20965;-74
2021/12/15 10:24:28;;;;;;;6.80;5.40;;;;;;;;;;5075648;28;20452;-74
2021/12/15 10:26:56;;;;;;;7.20;5.17;;;;;;;;;;5075352;28;20417;-75
2021/12/15 10:29:22;;;;;;;8.57;6.00;;;;;;;;;;5075412;28;20415;-75
2021/12/15 10:31:56;;;;;;;8.50;5.73;;;;;;;;;;5075319;28;20409;-74
2021/12/15 10:34:23;;;;;;;5.87;5.27;;;;;;;;;;5075354;28;20416;-73
2021/12/15 10:36:49;;;;;;;8.13;5.90;;;;;;;;;;5075300;28;20432;-74
2021/12/15 10:39:15;;;;;;;8.43;5.97;;;;;;;;;;5075260;28;20448;-73
2021/12/15 10:41:43;;;;;;;8.20;6.30;;;;;;;;;;5074128;28;20448;-70
2021/12/15 10:44:11;;;;;;;10.80;6.70;;;;;;;;;;5073922;28;20529;-73
2021/12/15 10:46:41;;;;;;;9.27;6.87;;;;;;;;;;5074918;28;20415;-75
2021/12/15 10:49:07;;;;;;;8.80;7.00;;;;;;;;;;5073744;28;20539;-72
2021/12/15 10:51:36;;;;;;;7.67;6.40;;;;;;;;;;5073700;28;20436;-73
2021/12/15 10:54:09;;;;;;;10.97;7.30;;;;;;;;;;5074876;28;20400;-70
2021/12/15 10:56:36;;;;;;;9.17;6.40;;;;;;;;;;5074701;28;20523;-72
2021/12/15 10:59:13;;;;;;;9.93;6.40;;;;;;;;;;5074778;28;20405;-70
2021/12/15 11:01:39;;;;;;;11.00;7.40;;;;;;;;;;5074837;28;20428;-71
2021/12/15 11:04:19;;;;;;;8.40;6.77;;;;;;;;;;5074645;28;20409;-70
2021/12/15 11:06:45;;;;;;;6.73;5.90;;;;;;;;;;5074667;28;20756;-72
2021/12/15 11:09:16;;;;;;;9.63;6.30;;;;;;;;;;5074602;28;20440;-72
2021/12/15 11:11:59;;;;;;;8.97;6.50;;;;;;;;;;5074586;28;20431;-75
2021/12/15 11:14:30;;;;;;;8.07;5.87;;;;;;;;;;5074522;28;20411;-72
2021/12/15 11:17:04;;;;;;;8.20;6.00;;;;;;;;;;5074575;28;20868;-76
2021/12/15 11:19:39;;;;;;;7.90;6.03;;;;;;;;;;5073212;28;20497;-75
2021/12/15 11:22:24;;;;;;;12.60;6.63;;;;;;;;;;5074335;28;20415;-73
2021/12/15 11:24:50;;;;;;;8.83;6.10;;;;;;;;;;5074205;28;20389;-76
2021/12/15 11:27:17;;;;;;;7.50;6.27;;;;;;;;;;5074298;28;20431;-75
2021/12/15 11:29:43;;;;;;;7.73;6.77;;;;;;;;;;5074242;28;20804;-73
2021/12/15 11:32:29;;;;;;;11.83;6.30;;;;;;;;;;5074104;28;20424;-73
2021/12/15 11:35:03;;;;;;;9.37;7.33;;;;;;;;;;5073862;28;20409;-73
2021/12/15 11:37:48;;;;;;;10.23;6.50;;;;;;;;;;5072557;28;20781;-72
2021/12/15 11:40:15;;;;;;;7.57;5.80;;;;;;;;;;5073836;28;20818;-73
2021/12/15 11:42:42;;;;;;;7.40;5.50;;;;;;;;;;5073833;28;20432;-72
2021/12/15 11:45:09;;;;;;;6.90;5.57;;;;;;;;;;5072390;28;20417;-74
2021/12/15 11:47:36;;;;;;;7.60;6.33;;;;;;;;;;5073733;28;20842;-73
2021/12/15 11:50:07;;;;;;;7.50;6.30;;;;;;;;;;5073796;28;20466;-72
2021/12/15 11:52:39;;;;;;;8.90;6.83;;;;;;;;;;5073778;28;20404;-75
2021/12/15 11:55:07;;;;;;;9.63;6.27;;;;;;;;;;5073700;28;20479;-75
2021/12/15 11:57:33;;;;;;;7.73;6.40;;;;;;;;;;5073585;28;20444;-75
2021/12/15 12:00:05;;;;;;;7.03;6.33;;;;;;;;;;5073258;28;20499;-74
2021/12/15 12:02:38;;;;;;;8.60;6.73;;;;;;;;;;5073596;28;20930;-75
2021/12/15 12:05:11;;;;;;;6.53;5.67;;;;;;;;;;5071968;28;20458;-72
2021/12/15 12:07:45;;;;;;;7.90;5.70;;;;;;;;;;5073425;28;20401;-74
2021/12/15 12:10:44;;;;;;;8.87;6.43;;;;;;;;;;5073376;28;20448;-74
2021/12/15 12:13:14;;;;;;;9.00;6.77;;;;;;;;;;5073336;28;20427;-75
2021/12/15 12:15:44;;;;;;;8.53;6.73;;;;;;;;;;5072358;28;20833;-73
2021/12/15 12:18:13;;;;;;;9.37;6.90;;;;;;;;;;5072139;28;20419;-74
2021/12/15 12:20:40;;;;;;;8.03;7.00;;;;;;;;;;5073194;28;20472;-74
2021/12/15 12:23:09;;;;;;;10.50;7.03;;;;;;;;;;5072079;28;20413;-74
2021/12/15 12:25:47;;;;;;;9.93;7.47;;;;;;;;;;5073201;28;20416;-74
2021/12/15 12:28:14;;;;;;;10.93;7.80;;;;;;;;;;5073283;28;20404;-75
2021/12/15 12:30:42;;;;;;;8.60;7.10;;;;;;;;;;5073074;28;20421;-73
2021/12/15 12:33:10;;;;;;;8.73;7.03;;;;;;;;;;5073220;28;20404;-73
2021/12/15 12:35:39;;;;;;;9.90;7.00;;;;;;;;;;5073121;28;20478;-73
2021/12/15 12:38:08;;;;;;;8.40;6.70;;;;;;;;;;5071831;28;20405;-71
2021/12/15 12:40:36;;;;;;;10.40;6.57;;;;;;;;;;5072946;28;20492;-71
2021/12/15 12:43:21;;;;;;;9.87;7.67;;;;;;;;;;5072975;28;20401;-71
2021/12/15 12:46:14;;;;;;;10.73;7.47;;;;;;;;;;5072851;28;20407;-73
2021/12/15 12:59:25;;;;;;;9.97;8.30;;;;;;;;;;5072949;28;20846;-72
2021/12/15 13:01:52;;;;;;;10.20;7.53;;;;;;;;;;5071498;28;20421;-75
2021/12/15 13:04:18;;;;;;;8.97;7.40;;;;;;;;;;5072849;28;20475;-72
2021/12/15 13:06:44;;;;;;;9.13;7.50;;;;;;;;;;5072802;28;20413;-73
2021/12/15 13:09:15;;;;;;;10.17;7.30;;;;;;;;;;5071404;28;20409;-69
2021/12/15 13:11:43;;;;;;;17.07;7.77;;;;;;;;;;5073662;28;20549;-69
2021/12/15 13:14:09;;;;;;;9.70;6.97;;;;;;;;;;5076765;28;20953;-68
2021/12/15 13:16:36;;;;;;;10.33;6.57;;;;;;;;;;5076850;28;20393;-68
2021/12/15 13:19:05;;;;;;;9.80;7.00;;;;;;;;;;5076619;28;20887;-69
2021/12/15 13:21:39;;;;;;;8.10;6.77;;;;;;;;;;5075434;28;20456;-71
2021/12/15 13:24:11;;;;;;;9.43;7.97;;;;;;;;;;5076686;28;20737;-68
2021/12/15 13:29:36;;;;;;;7.60;6.50;;;;;;;;;;5076626;28;20399;-69
2021/12/15 13:32:03;;;;;;;8.43;7.47;;;;;;;;;;5076557;28;20404;-70
2021/12/15 13:34:49;;;;;;;7.43;6.63;;;;;;;;;;5076340;28;20876;-69
2021/12/15 13:37:33;;;;;;;8.00;6.90;;;;;;;;;;5076118;28;20432;-70
2021/12/15 13:39:59;;;;;;;8.27;6.90;;;;;;;;;;5076043;28;20861;-73
2021/12/15 13:43:02;;;;;;;10.70;7.10;;;;;;;;;;5076215;28;20405;-70
2021/12/15 13:45:33;;;;;;;7.53;6.40;;;;;;;;;;5076156;28;20392;-71
2021/12/15 13:47:59;;;;;;;8.93;7.03;;;;;;;;;;5075974;28;20450;-70
2021/12/15 13:50:29;;;;;;;7.77;6.30;;;;;;;;;;5076065;28;20408;-69
2021/12/15 13:52:59;;;;;;;9.60;6.97;;;;;;;;;;5076158;28;20392;-70
2021/12/15 13:55:27;;;;;;;8.10;7.00;;;;;;;;;;5076058;28;20484;-70
2021/12/15 13:58:03;;;;;;;7.53;6.33;;;;;;;;;;5074460;28;20486;-73
2021/12/15 14:00:29;;;;;;;7.87;6.30;;;;;;;;;;5075807;28;20471;-73
2021/12/15 14:02:57;;;;;;;7.00;6.40;;;;;;;;;;5075786;28;20397;-73
2021/12/15 14:05:31;;;;;;;8.33;6.27;;;;;;;;;;5075797;28;20401;-74
2021/12/15 14:08:00;;;;;;;6.80;6.10;;;;;;;;;;5075711;28;20439;-73
2021/12/15 14:10:26;;;;;;;6.90;6.20;;;;;;;;;;5075683;28;20748;-69
2021/12/15 14:12:53;;;;;;;7.13;6.17;;;;;;;;;;5075789;28;20918;-67
2021/12/15 14:15:25;;;;;;;8.20;7.40;;;;;;;;;;5074347;28;20408;-68
2021/12/15 14:17:57;;;;;;;7.20;6.40;;;;;;;;;;5075448;28;20413;-74
2021/12/15 14:20:23;;;;;;;7.60;6.73;;;;;;;;;;5075537;28;20518;-73
2021/12/15 14:22:55;;;;;;;7.50;6.43;;;;;;;;;;5073899;28;20420;-74
2021/12/15 14:25:21;;;;;;;6.93;6.23;;;;;;;;;;5075492;28;20413;-70
2021/12/15 14:27:47;;;;;;;7.20;5.90;;;;;;;;;;5075396;28;20401;-72
2021/12/15 14:30:13;;;;;;;7.03;6.20;;;;;;;;;;5075439;28;20470;-71
2021/12/15 14:32:39;;;;;;;6.60;5.80;;;;;;;;;;5075424;28;20499;-72
2021/12/15 14:35:15;;;;;;;6.20;5.60;;;;;;;;;;5074056;28;20986;-71
2021/12/15 14:37:42;;;;;;;7.20;6.10;;;;;;;;;;5073977;28;20922;-72
2021/12/15 14:40:08;;;;;;;6.97;6.27;;;;;;;;;;5073855;28;20476;-73
2021/12/15 14:42:38;;;;;;;7.47;6.77;;;;;;;;;;5075115;28;20438;-72
2021/12/15 14:45:06;;;;;;;8.63;6.87;;;;;;;;;;5075054;28;20741;-72
2021/12/15 14:47:33;;;;;;;8.07;6.20;;;;;;;;;;5074997;28;20807;-72
2021/12/15 14:50:05;;;;;;;7.03;6.43;;;;;;;;;;5074955;28;20416;-70
2021/12/15 14:52:33;;;;;;;6.90;6.20;;;;;;;;;;5073728;28;20435;-71
2021/12/15 14:55:01;;;;;;;10.77;8.47;;;;;;;;;;5074979;28;20397;-74
2021/12/15 14:57:28;;;;;;;7.47;6.47;;;;;;;;;;5074570;28;20491;-72
2021/12/15 14:59:59;;;;;;;8.63;7.57;;;;;;;;;;5074779;28;20460;-72
2021/12/15 15:02:28;;;;;;;11.00;7.00;;;;;;;;;;5074769;28;20405;-74
2021/12/15 15:05:00;;;;;;;7.43;6.50;;;;;;;;;;5074633;28;20442;-73
2021/12/15 15:07:28;;;;;;;7.50;6.80;;;;;;;;;;5074575;28;20393;-70
2021/12/15 15:09:55;;;;;;;7.10;6.40;;;;;;;;;;5074637;28;20888;-71
2021/12/15 15:12:21;;;;;;;6.40;5.70;;;;;;;;;;5074522;28;20404;-73
2021/12/15 15:14:51;;;;;;;7.47;6.67;;;;;;;;;;5074585;28;20409;-73
2021/12/15 15:17:24;;;;;;;7.13;6.10;;;;;;;;;;5074485;28;20451;-73
2021/12/15 15:19:52;;;;;;;7.47;6.37;;;;;;;;;;5074385;28;20500;-72
2021/12/15 15:22:32;;;;;;;9.70;6.63;;;;;;;;;;5074458;28;20473;-73
2021/12/15 15:24:58;;;;;;;6.93;6.33;;;;;;;;;;5074295;28;20740;-71
2021/12/15 15:27:24;;;;;;;9.40;6.70;;;;;;;;;;5072911;28;20971;-72
2021/12/15 15:29:53;;;;;;;7.70;6.43;;;;;;;;;;5074134;28;20993;-72
2021/12/15 15:32:21;;;;;;;8.40;7.13;;;;;;;;;;5074145;28;20411;-72
2021/12/15 15:34:47;;;;;;;6.80;6.10;;;;;;;;;;5073453;28;20508;-73
2021/12/15 15:37:16;;;;;;;7.80;7.00;;;;;;;;;;5074037;28;20631;-73
2021/12/15 15:39:42;;;;;;;7.47;6.60;;;;;;;;;;5073929;28;20462;-75
2021/12/15 15:42:08;;;;;;;8.33;7.10;;;;;;;;;;5073924;28;20480;-72
2021/12/15 15:44:39;;;;;;;7.37;6.50;;;;;;;;;;5073877;28;20427;-71
2021/12/15 15:47:13;;;;;;;7.00;6.23;;;;;;;;;;5073822;28;20846;-74
2021/12/15 15:49:46;;;;;;;6.73;5.53;;;;;;;;;;5073969;28;20411;-74
2021/12/15 15:52:12;;;;;;;6.63;5.80;;;;;;;;;;5073793;28;20459;-74
2021/12/15 15:54:39;;;;;;;6.47;5.77;;;;;;;;;;5073580;28;20888;-73
2021/12/15 15:57:07;;;;;;;7.43;6.27;;;;;;;;;;5073189;28;20951;-73
2021/12/15 15:59:33;;;;;;;7.67;6.23;;;;;;;;;;5073534;28;20455;-74
2021/12/15 16:02:02;;;;;;;7.70;6.23;;;;;;;;;;5072269;28;20489;-72
2021/12/15 16:04:29;;;;;;;8.90;6.80;;;;;;;;;;5073570;28;20412;-72
2021/12/15 16:06:55;;;;;;;8.10;7.30;;;;;;;;;;5073500;28;20407;-74
2021/12/15 16:09:23;;;;;;;9.40;7.10;;;;;;;;;;5072231;28;20502;-74
2021/12/15 16:11:52;;;;;;;8.03;6.23;;;;;;;;;;5073406;28;20460;-73